TimePST,TemperatureF,Dew PointF,Humidity,Sea Level PressureIn,VisibilityMPH,Wind Direction,Wind SpeedMPH,Gust SpeedMPH,PrecipitationIn,Events,Conditions,WindDirDegrees,DateUTC
12:00 AM,41.2,34.2,76,30.38,-9999.0,WSW,19.6,-,N/A,,Unknown,250,2014-01-04 08:00:00
1:00 AM,39.7,32.9,77,30.39,-9999.0,WSW,13.8,-,N/A,,Unknown,240,2014-01-04 09:00:00
2:00 AM,40.8,34.0,77,30.41,-9999.0,West,20.7,-,N/A,,Unknown,260,2014-01-04 10:00:00
3:00 AM,40.3,35.1,82,30.42,-9999.0,West,19.6,-,N/A,,Unknown,260,2014-01-04 11:00:00
4:00 AM,40,34,72,30.42,,West,18.4,,,,,270,2014-01-04 12:00:00
4:00 AM,39.9,34.0,79,30.42,-9999.0,West,18.4,-,N/A,,Unknown,270,2014-01-04 12:00:00
5:00 AM,39.4,33.8,80,30.42,-9999.0,West,17.3,-,N/A,,Unknown,260,2014-01-04 13:00:00
6:00 AM,37.9,33.3,83,30.43,-9999.0,WSW,12.7,-,N/A,,Unknown,240,2014-01-04 14:00:00
7:00 AM,39.6,33.3,78,30.44,-9999.0,WNW,11.5,-,N/A,,Unknown,290,2014-01-04 15:00:00
8:00 AM,37.6,33.1,84,30.44,-9999.0,SW,10.4,-,N/A,,Unknown,230,2014-01-04 16:00:00
9:00 AM,38.5,31.3,75,30.47,-9999.0,WSW,8.1,-,N/A,,Unknown,250,2014-01-04 17:00:00
10:00 AM,38,33,75,30.49,,WSW,8.1,,,,,240,2014-01-04 18:00:00
10:00 AM,38.5,32.9,80,30.49,-9999.0,WSW,8.1,-,N/A,,Unknown,240,2014-01-04 18:00:00
11:00 AM,39.0,33.3,80,30.49,-9999.0,West,5.8,-,N/A,,Unknown,260,2014-01-04 19:00:00
12:00 PM,39.4,32.9,78,30.48,-9999.0,SW,5.8,-,N/A,,Unknown,230,2014-01-04 20:00:00
1:00 PM,39.6,31.6,73,30.46,-9999.0,WSW,5.8,-,N/A,,Unknown,240,2014-01-04 21:00:00
2:00 PM,39.7,30.9,71,30.46,-9999.0,NE,3.5,-,N/A,,Unknown,40,2014-01-04 22:00:00
3:00 PM,39.4,31.3,73,30.45,-9999.0,ENE,2.3,-,N/A,,Unknown,60,2014-01-04 23:00:00
4:00 PM,39,31,65,30.46,,NE,3.5,,,,,40,2014-01-05 00:00:00
4:00 PM,39.4,31.5,73,30.46,-9999.0,NE,3.5,-,N/A,,Unknown,40,2014-01-05 00:00:00
5:00 PM,36.5,30.9,80,30.46,-9999.0,Calm,Calm,-,N/A,,Unknown,0,2014-01-05 01:00:00
6:00 PM,38.8,31.5,75,30.46,-9999.0,NNW,2.3,-,N/A,,Unknown,330,2014-01-05 02:00:00
7:00 PM,38.7,31.6,76,30.47,-9999.0,South,2.3,-,N/A,,Unknown,180,2014-01-05 03:00:00
8:00 PM,38.7,32.9,80,30.48,-9999.0,WSW,4.6,-,N/A,,Unknown,250,2014-01-05 04:00:00
9:00 PM,37.9,31.6,78,30.49,-9999.0,SW,10.4,-,N/A,,Unknown,230,2014-01-05 05:00:00
10:00 PM,38,33,77,30.49,,WSW,6.9,,,,,240,2014-01-05 06:00:00
10:00 PM,37.8,33.3,84,30.49,-9999.0,WSW,6.9,-,N/A,,Unknown,240,2014-01-05 06:00:00
11:00 PM,37.8,32.9,83,30.50,-9999.0,WSW,5.8,-,N/A,,Unknown,240,2014-01-05 07:00:00